Time;durP1;ratioP1;P1;durP2;ratioP2;P2;SDS_P1;SDS_P2;PMS_P1;PMS_P2;Temp;Humidity;BMP_temperature;BMP_pressure;BME280_temperature;BME280_humidity;BME280_pressure;Samples;Min_cycle;Max_cycle;Signal;HPM_P1;HPM_P2
2022/06/14 00:03:17;;;;;;;10.20;2.93;;;11.70;99.90;;;;;;4819468;29;20422;-50
2022/06/14 00:05:43;;;;;;;6.67;2.67;;;11.70;99.90;;;;;;4822579;29;20455;-50
2022/06/14 00:08:10;;;;;;;12.30;3.40;;;11.80;99.90;;;;;;4825773;29;20253;-50
2022/06/14 00:10:36;;;;;;;11.20;2.87;;;11.80;99.90;;;;;;4825209;29;20491;-50
2022/06/14 00:13:03;;;;;;;8.87;2.50;;;11.80;99.90;;;;;;4818532;29;20427;-50
2022/06/14 00:15:29;;;;;;;6.77;2.20;;;11.90;99.90;;;;;;4825556;29;20454;-51
2022/06/14 00:17:55;;;;;;;5.40;2.40;;;11.90;99.90;;;;;;4825906;29;20440;-50
2022/06/14 00:20:20;;;;;;;5.60;2.43;;;12.00;99.90;;;;;;4824907;29;20206;-50
2022/06/14 00:22:46;;;;;;;7.17;2.50;;;11.90;99.90;;;;;;4825638;29;20229;-50
2022/06/14 00:25:43;;;;;;;6.03;2.50;;;11.90;99.90;;;;;;4824549;29;20466;-50
2022/06/14 00:28:12;;;;;;;8.80;2.60;;;11.90;99.90;;;;;;4815398;29;20222;-50
2022/06/14 00:30:39;;;;;;;5.07;2.50;;;11.90;99.90;;;;;;4824308;29;20482;-50
2022/06/14 00:33:05;;;;;;;9.30;2.60;;;11.80;99.90;;;;;;4825391;29;20448;-50
2022/06/14 00:35:31;;;;;;;9.77;2.77;;;11.80;99.90;;;;;;4825619;29;20914;-50
2022/06/14 00:37:57;;;;;;;8.60;2.80;;;11.70;99.90;;;;;;4825614;29;20468;-50
2022/06/14 00:40:27;;;;;;;7.30;2.50;;;11.70;99.90;;;;;;4824695;29;20861;-50
2022/06/14 00:42:53;;;;;;;9.70;2.57;;;11.90;99.90;;;;;;4825341;29;20211;-50
2022/06/14 00:45:18;;;;;;;10.27;2.57;;;11.90;99.90;;;;;;4817454;29;20482;-50
2022/06/14 00:48:01;;;;;;;7.07;2.00;;;11.90;99.90;;;;;;4823354;29;20474;-50
2022/06/14 00:50:31;;;;;;;13.57;2.50;;;12.10;99.90;;;;;;4825162;29;20258;-50
2022/06/14 00:53:09;;;;;;;5.40;2.30;;;12.10;99.90;;;;;;4824125;29;20451;-50
2022/06/14 00:55:40;;;;;;;7.40;2.60;;;12.30;99.90;;;;;;4825221;29;20439;-50
2022/06/14 00:58:09;;;;;;;11.13;2.57;;;12.20;99.90;;;;;;4820633;29;20456;-50
2022/06/14 01:00:46;;;;;;;7.13;2.27;;;12.20;99.90;;;;;;4824087;29;21056;-50
2022/06/14 01:03:20;;;;;;;6.40;2.03;;;12.10;99.90;;;;;;4824458;29;20519;-50
2022/06/14 01:06:05;;;;;;;7.90;2.73;;;12.30;99.90;;;;;;4823532;29;20507;-50
2022/06/14 01:08:32;;;;;;;10.13;2.87;;;12.30;99.90;;;;;;4818883;29;20490;-50
2022/06/14 01:10:57;;;;;;;10.77;3.23;;;12.20;99.90;;;;;;4822784;29;20455;-50
2022/06/14 01:13:23;;;;;;;5.00;2.40;;;12.30;99.90;;;;;;4821655;29;20447;-50
2022/06/14 01:15:53;;;;;;;9.43;2.67;;;12.30;99.90;;;;;;4821539;29;20840;-50
2022/06/14 01:18:18;;;;;;;6.23;2.40;;;12.20;99.90;;;;;;4820309;29;20685;-50
2022/06/14 01:20:44;;;;;;;12.30;2.80;;;12.30;99.90;;;;;;4819417;29;20557;-50
2022/06/14 01:23:14;;;;;;;5.93;2.27;;;12.30;99.90;;;;;;4821167;29;20464;-50
2022/06/14 01:25:50;;;;;;;11.23;2.40;;;12.30;99.90;;;;;;4821780;29;20229;-50
2022/06/14 01:28:20;;;;;;;7.23;2.67;;;12.20;99.90;;;;;;4832139;29;20479;-50
2022/06/14 01:30:48;;;;;;;7.53;3.50;;;12.30;99.90;;;;;;4822180;29;20479;-53
2022/06/14 01:33:24;;;;;;;6.70;2.63;;;12.40;99.90;;;;;;4821717;29;20530;-50
2022/06/14 01:35:57;;;;;;;5.73;2.03;;;12.60;99.90;;;;;;4821309;29;20478;-50
2022/06/14 01:38:24;;;;;;;11.50;3.80;;;12.60;99.90;;;;;;4821885;29;20451;-50
2022/06/14 01:41:08;;;;;;;5.60;2.40;;;12.80;99.90;;;;;;4821764;29;20451;-50
2022/06/14 01:43:36;;;;;;;10.60;2.50;;;12.80;99.90;;;;;;4815998;29;20613;-50
2022/06/14 01:46:26;;;;;;;10.37;2.70;;;13.00;99.90;;;;;;4821316;29;20444;-51
2022/06/14 01:52:18;;;;;;;10.17;2.50;;;12.70;99.90;;;;;;4821921;29;20571;-50
2022/06/14 01:54:55;;;;;;;10.00;2.70;;;12.60;99.90;;;;;;4818813;29;20474;-50
2022/06/14 01:57:35;;;;;;;7.03;2.40;;;12.50;99.90;;;;;;4821800;29;21258;-50
2022/06/14 02:00:08;;;;;;;12.80;2.60;;;12.50;99.90;;;;;;4820752;29;21172;-50
2022/06/14 02:05:52;;;;;;;7.73;2.10;;;12.40;99.90;;;;;;4821953;29;20861;-50
2022/06/14 02:08:23;;;;;;;12.60;2.30;;;12.50;99.90;;;;;;4816044;29;20494;-49
2022/06/14 02:11:08;;;;;;;4.87;2.87;;;12.50;99.90;;;;;;4821302;29;20467;-50
2022/06/14 02:13:33;;;;;;;9.13;2.40;;;12.60;99.90;;;;;;4815647;29;20881;-50
2022/06/14 02:16:16;;;;;;;17.63;3.17;;;12.70;99.90;;;;;;4821567;29;20431;-50
2022/06/14 02:19:03;;;;;;;8.17;2.57;;;12.70;99.90;;;;;;4820786;29;20190;-50
2022/06/14 02:21:33;;;;;;;5.20;2.40;;;12.60;99.90;;;;;;4821190;29;20458;-50
2022/06/14 02:24:09;;;;;;;12.50;2.60;;;12.70;99.90;;;;;;4817461;29;20477;-52
2022/06/14 02:26:57;;;;;;;8.33;2.40;;;12.80;99.90;;;;;;4821065;29;20548;-49
2022/06/14 02:29:32;;;;;;;8.27;2.30;;;12.80;99.90;;;;;;4818966;29;20479;-50
2022/06/14 02:32:15;;;;;;;7.10;2.30;;;12.70;99.90;;;;;;4821524;29;21201;-50
2022/06/14 02:34:48;;;;;;;12.00;2.93;;;12.70;99.90;;;;;;4820707;29;20534;-50
2022/06/14 02:37:25;;;;;;;10.03;2.97;;;12.40;99.90;;;;;;4820336;29;20451;-50
2022/06/14 02:40:27;;;;;;;6.67;2.70;;;12.30;99.90;;;;;;4821233;29;20549;-50
2022/06/14 02:43:20;;;;;;;12.77;2.03;;;12.30;99.90;;;;;;4787337;29;20461;-50
2022/06/14 02:45:58;;;;;;;8.43;2.13;;;12.40;99.90;;;;;;4820641;29;20463;-54
2022/06/14 02:48:46;;;;;;;8.20;2.40;;;12.30;99.90;;;;;;4813215;29;20460;-50
2022/06/14 02:51:36;;;;;;;9.23;2.47;;;12.30;99.90;;;;;;4820175;29;20532;-50
2022/06/14 02:54:07;;;;;;;7.97;2.27;;;12.30;99.90;;;;;;4820640;29;20443;-50
2022/06/14 02:56:42;;;;;;;8.77;2.40;;;12.30;99.90;;;;;;4820796;29;20483;-50
2022/06/14 02:59:32;;;;;;;8.03;2.77;;;12.40;99.90;;;;;;4820415;29;21470;-50
2022/06/14 03:02:11;;;;;;;7.70;2.37;;;12.40;99.90;;;;;;4810739;29;21059;-50
2022/06/14 03:05:03;;;;;;;4.63;2.30;;;12.40;99.90;;;;;;4817949;29;20458;-49
2022/06/14 03:08:00;;;;;;;9.30;2.40;;;12.50;99.90;;;;;;4820015;29;20570;-50
2022/06/14 03:10:46;;;;;;;6.53;2.60;;;12.60;99.90;;;;;;4804064;29;21052;-50
2022/06/14 03:13:53;;;;;;;7.07;2.30;;;12.70;99.90;;;;;;4815214;29;20451;-50
2022/06/14 03:16:37;;;;;;;7.00;2.63;;;12.80;99.90;;;;;;4785088;29;20463;-50
2022/06/14 03:19:14;;;;;;;11.73;2.57;;;12.80;99.90;;;;;;4821000;29;20499;-50
2022/06/14 03:21:57;;;;;;;14.93;3.00;;;12.80;99.90;;;;;;4820289;29;20455;-50
2022/06/14 03:24:44;;;;;;;6.30;2.20;;;12.80;99.90;;;;;;4817454;29;20451;-50
2022/06/14 03:27:41;;;;;;;6.03;2.80;;;12.70;99.90;;;;;;4819401;29;20463;-50
2022/06/14 03:30:17;;;;;;;17.70;2.67;;;12.70;99.90;;;;;;4819154;29;20479;-50
2022/06/14 03:33:04;;;;;;;8.60;2.50;;;12.80;99.90;;;;;;4817785;29;20542;-50
2022/06/14 03:35:43;;;;;;;8.70;2.93;;;12.70;99.90;;;;;;4821763;29;20459;-50
2022/06/14 03:38:15;;;;;;;12.67;2.73;;;12.70;99.90;;;;;;4814974;29;20974;-50
2022/06/14 03:40:43;;;;;;;12.30;2.83;;;12.70;99.90;;;;;;4822437;29;20463;-50
2022/06/14 03:43:10;;;;;;;8.03;3.10;;;12.70;99.90;;;;;;4822758;29;20452;-50
2022/06/14 03:45:44;;;;;;;9.53;2.70;;;12.60;99.90;;;;;;4822379;29;20443;-50
2022/06/14 03:48:11;;;;;;;5.23;2.30;;;12.70;99.90;;;;;;4815920;29;20534;-50
2022/06/14 03:51:07;;;;;;;3.90;2.17;;;12.70;99.90;;;;;;4816613;29;20483;-50
2022/06/14 03:53:42;;;;;;;5.87;2.23;;;12.90;99.90;;;;;;4817604;29;20447;-50
2022/06/14 03:56:29;;;;;;;13.43;2.93;;;13.10;99.90;;;;;;4823860;29;20454;-50
2022/06/14 03:59:39;;;;;;;9.50;3.27;;;13.30;99.90;;;;;;4821947;29;20454;-50
2022/06/14 04:02:14;;;;;;;11.10;3.10;;;13.30;99.90;;;;;;4822593;29;20534;-50
2022/06/14 04:04:51;;;;;;;6.17;2.77;;;13.30;99.90;;;;;;4823811;29;20438;-50
2022/06/14 04:07:32;;;;;;;15.17;3.53;;;13.30;99.90;;;;;;4823429;29;20490;-50
2022/06/14 04:10:28;;;;;;;7.80;3.63;;;13.30;99.90;;;;;;4819871;29;20840;-50
2022/06/14 04:13:12;;;;;;;12.90;3.50;;;13.40;99.90;;;;;;4822364;29;20456;-50
2022/06/14 04:16:02;;;;;;;10.03;3.30;;;13.30;99.90;;;;;;4822036;29;20962;-50
2022/06/14 04:18:40;;;;;;;14.17;3.60;;;13.20;99.90;;;;;;4823173;29;20600;-50
2022/06/14 04:21:13;;;;;;;13.70;3.70;;;13.10;99.90;;;;;;4821716;29;20956;-50
2022/06/14 04:24:43;;;;;;;10.20;3.70;;;13.10;99.90;;;;;;4822473;29;20976;-50
2022/06/14 04:27:08;;;;;;;16.30;3.70;;;13.20;99.90;;;;;;4778155;30;20541;-50
2022/06/14 04:29:50;;;;;;;8.17;3.30;;;13.50;99.90;;;;;;4810836;29;20482;-49
2022/06/14 04:32:42;;;;;;;8.50;2.90;;;13.60;99.90;;;;;;4820117;29;20213;-50
2022/06/14 04:35:28;;;;;;;14.23;3.40;;;13.80;99.90;;;;;;4819798;29;20453;-51
2022/06/14 04:37:55;;;;;;;10.30;3.10;;;13.90;99.90;;;;;;4785089;29;20442;-50
2022/06/14 04:40:26;;;;;;;11.77;2.90;;;13.90;99.90;;;;;;4822359;29;20447;-50
2022/06/14 04:42:52;;;;;;;11.27;3.10;;;14.00;99.90;;;;;;4822952;29;20443;-50
2022/06/14 04:45:40;;;;;;;13.50;2.93;;;14.10;99.90;;;;;;4821822;29;21839;-51
2022/06/14 04:48:11;;;;;;;10.07;3.43;;;14.30;99.90;;;;;;4829706;29;20243;-50
2022/06/14 04:50:59;;;;;;;13.30;3.30;;;14.40;99.90;;;;;;4823449;29;20459;-50
2022/06/14 04:53:57;;;;;;;12.50;2.93;;;14.50;99.90;;;;;;4817088;29;20488;-50
2022/06/14 04:56:37;;;;;;;14.33;3.70;;;14.60;99.90;;;;;;4818431;29;20490;-50
2022/06/14 04:59:13;;;;;;;15.13;3.83;;;14.70;99.90;;;;;;4822381;29;20451;-51
2022/06/14 05:01:52;;;;;;;13.90;3.30;;;14.70;99.90;;;;;;4820787;29;20953;-50
2022/06/14 05:04:26;;;;;;;13.90;2.90;;;14.50;99.90;;;;;;4832444;29;21261;-50
2022/06/14 05:06:59;;;;;;;6.90;2.60;;;14.50;99.90;;;;;;4819007;29;20811;-50
2022/06/14 05:09:34;;;;;;;12.53;2.90;;;14.40;99.90;;;;;;4822901;29;20970;-50
2022/06/14 05:12:09;;;;;;;7.60;2.83;;;14.50;99.90;;;;;;4820398;29;20451;-50
2022/06/14 05:15:01;;;;;;;11.40;2.60;;;14.50;99.90;;;;;;4822246;29;20455;-49
2022/06/14 05:17:53;;;;;;;7.33;2.70;;;14.40;99.90;;;;;;4810013;29;20455;-50
2022/06/14 05:20:37;;;;;;;13.97;3.40;;;14.40;99.90;;;;;;4815550;29;20471;-50
2022/06/14 05:23:16;;;;;;;9.90;3.17;;;14.30;99.90;;;;;;4822190;29;20511;-50
2022/06/14 05:26:06;;;;;;;12.37;3.10;;;14.20;99.90;;;;;;4821713;29;20466;-50
2022/06/14 05:28:46;;;;;;;10.87;3.37;;;14.00;99.90;;;;;;4822100;29;20452;-49
2022/06/14 05:31:29;;;;;;;13.13;4.20;;;14.00;99.90;;;;;;4823297;29;20484;-50
2022/06/14 05:34:00;;;;;;;6.50;3.37;;;13.90;99.90;;;;;;4822913;29;20460;-54
2022/06/14 05:36:34;;;;;;;10.33;3.70;;;13.90;99.90;;;;;;4819064;29;20447;-50
2022/06/14 05:39:24;;;;;;;15.17;3.23;;;13.70;99.90;;;;;;4820166;29;20698;-50
2022/06/14 05:42:00;;;;;;;15.57;4.33;;;13.70;99.90;;;;;;4818934;29;20517;-50
2022/06/14 05:44:32;;;;;;;11.40;3.67;;;13.60;99.90;;;;;;4821760;29;20549;-50
2022/06/14 05:47:08;;;;;;;9.30;3.63;;;13.50;99.90;;;;;;4821451;29;20459;-53
2022/06/14 05:49:38;;;;;;;9.53;3.30;;;13.60;99.90;;;;;;4821439;29;20487;-50
2022/06/14 05:52:07;;;;;;;8.87;3.20;;;13.70;99.90;;;;;;4816704;29;20452;-50
2022/06/14 05:54:41;;;;;;;12.27;3.47;;;13.70;99.90;;;;;;4817499;29;20976;-50
2022/06/14 05:57:31;;;;;;;8.87;3.33;;;13.70;99.90;;;;;;4821681;29;20804;-58
2022/06/14 06:00:23;;;;;;;7.33;3.03;;;13.70;99.90;;;;;;4820731;29;20514;-50
2022/06/14 06:02:48;;;;;;;11.47;3.20;;;13.70;99.90;;;;;;4821828;29;20451;-50
2022/06/14 06:05:48;;;;;;;8.27;2.87;;;13.70;99.90;;;;;;4821294;29;20447;-50
2022/06/14 06:08:33;;;;;;;15.30;3.60;;;13.60;99.90;;;;;;4817455;29;20245;-51
2022/06/14 06:11:09;;;;;;;6.47;3.10;;;13.70;99.90;;;;;;4820845;29;20494;-50
2022/06/14 06:14:08;;;;;;;10.90;3.70;;;13.70;99.90;;;;;;4819459;29;20454;-50
2022/06/14 06:16:46;;;;;;;8.97;3.20;;;13.80;99.90;;;;;;4810820;29;20533;-50
2022/06/14 06:19:24;;;;;;;6.33;2.93;;;13.90;99.90;;;;;;4820755;29;21215;-50
2022/06/14 06:22:16;;;;;;;5.87;2.87;;;14.20;99.90;;;;;;4822511;29;20942;-50
2022/06/14 06:24:53;;;;;;;10.00;3.40;;;14.50;99.90;;;;;;4820713;29;20478;-50
2022/06/14 06:27:28;;;;;;;11.57;3.37;;;14.70;99.90;;;;;;4818946;29;20443;-50
2022/06/14 06:30:12;;;;;;;8.33;3.30;;;15.10;99.90;;;;;;4820447;29;20474;-50
2022/06/14 06:32:39;;;;;;;12.57;3.17;;;15.40;99.90;;;;;;4821374;29;20467;-50
2022/06/14 06:35:05;;;;;;;12.23;3.00;;;15.70;99.90;;;;;;4821364;29;20459;-52
2022/06/14 06:37:39;;;;;;;7.07;3.20;;;15.90;99.90;;;;;;4822215;29;20440;-50
2022/06/14 06:40:23;;;;;;;8.57;3.10;;;16.00;99.90;;;;;;4821539;29;20513;-52
2022/06/14 06:43:00;;;;;;;7.87;2.60;;;16.20;99.90;;;;;;4832846;29;20602;-50
2022/06/14 06:45:34;;;;;;;11.53;2.87;;;16.10;99.90;;;;;;4818758;29;20941;-50
2022/06/14 06:48:28;;;;;;;8.10;2.50;;;16.20;99.90;;;;;;4821042;29;20469;-50
2022/06/14 06:51:07;;;;;;;12.73;2.77;;;16.00;99.90;;;;;;4819155;29;20486;-51
2022/06/14 06:53:40;;;;;;;13.30;2.70;;;16.20;99.90;;;;;;4821176;29;20493;-50
2022/06/14 06:56:20;;;;;;;7.50;2.87;;;16.40;99.90;;;;;;4819705;29;20882;-51
2022/06/14 06:58:54;;;;;;;8.98;3.00;;;16.30;99.90;;;;;;4819477;29;20517;-50
2022/06/14 07:01:34;;;;;;;8.40;3.50;;;16.60;99.90;;;;;;4820557;29;20609;-50
2022/06/14 07:07:16;;;;;;;12.80;2.57;;;16.70;99.90;;;;;;4821438;29;20503;-50
2022/06/14 07:09:49;;;;;;;11.83;3.23;;;16.60;99.90;;;;;;4821185;29;20582;-50
2022/06/14 07:12:26;;;;;;;5.90;3.03;;;16.90;99.90;;;;;;4820506;29;20543;-50
2022/06/14 07:15:03;;;;;;;7.97;2.70;;;17.20;99.90;;;;;;4815561;29;20419;-51
2022/06/14 07:17:32;;;;;;;6.00;2.33;;;17.40;99.90;;;;;;4819811;29;20447;-52
2022/06/14 07:20:01;;;;;;;10.90;2.83;;;17.30;99.90;;;;;;4818255;29;20530;-51
2022/06/14 07:22:50;;;;;;;10.03;2.57;;;16.80;99.90;;;;;;4820104;29;20463;-50
2022/06/14 07:25:20;;;;;;;5.53;2.40;;;16.50;99.90;;;;;;4819343;29;20797;-50
2022/06/14 07:27:54;;;;;;;9.83;2.40;;;16.50;99.90;;;;;;4819648;29;20850;-50
2022/06/14 07:30:28;;;;;;;11.17;3.27;;;16.40;99.90;;;;;;4819634;29;20518;-51
2022/06/14 07:32:56;;;;;;;15.83;2.50;;;16.90;99.90;;;;;;4818775;29;20471;-51
2022/06/14 07:35:47;;;;;;;11.13;3.30;;;17.90;99.90;;;;;;4820676;29;20424;-51
2022/06/14 07:38:18;;;;;;;8.90;2.50;;;18.50;99.90;;;;;;4819023;29;20486;-48
2022/06/14 07:41:20;;;;;;;5.97;2.10;;;18.60;99.90;;;;;;4820009;29;20451;-48
2022/06/14 07:43:59;;;;;;;10.43;2.60;;;18.50;99.90;;;;;;4755267;29;20470;-48
2022/06/14 07:46:38;;;;;;;8.63;2.20;;;18.30;99.90;;;;;;4812905;29;20456;-48
2022/06/14 07:49:23;;;;;;;6.97;2.30;;;18.10;99.90;;;;;;4820446;29;20561;-48
2022/06/14 07:52:01;;;;;;;10.50;3.00;;;17.70;99.90;;;;;;4817718;29;20522;-48
2022/06/14 07:54:48;;;;;;;9.30;2.67;;;17.30;99.90;;;;;;4820976;29;20447;-48
2022/06/14 07:57:23;;;;;;;8.10;2.33;;;17.00;99.90;;;;;;4825676;29;20431;-48
2022/06/14 08:03:09;;;;;;;9.80;2.30;;;17.10;99.90;;;;;;4820584;29;20462;-48
2022/06/14 08:05:38;;;;;;;5.83;2.23;;;18.10;99.90;;;;;;4820774;29;20456;-48
2022/06/14 08:08:10;;;;;;;7.70;1.93;;;18.60;99.90;;;;;;4830863;29;20531;-48
2022/06/14 08:10:42;;;;;;;7.77;1.90;;;18.90;99.90;;;;;;4837537;29;20481;-48
2022/06/14 08:13:11;;;;;;;10.03;2.50;;;18.70;99.90;;;;;;4831365;29;20473;-48
2022/06/14 08:15:47;;;;;;;5.80;1.73;;;18.30;99.90;;;;;;4837205;29;20452;-48
2022/06/14 08:18:36;;;;;;;7.33;1.90;;;18.00;99.90;;;;;;4833272;29;20513;-48
2022/06/14 08:21:15;;;;;;;7.17;1.60;;;17.90;99.90;;;;;;4838318;29;20811;-48
2022/06/14 08:24:05;;;;;;;7.40;2.20;;;17.70;99.90;;;;;;4838408;29;20506;-48
2022/06/14 08:26:45;;;;;;;6.57;2.37;;;18.00;99.90;;;;;;4834722;29;20462;-49
2022/06/14 08:29:54;;;;;;;7.40;1.90;;;18.90;99.90;;;;;;4841326;29;20457;-48
2022/06/14 08:32:23;;;;;;;5.23;1.93;;;19.70;99.90;;;;;;4841429;29;20446;-48
2022/06/14 08:35:14;;;;;;;9.27;2.50;;;19.80;99.90;;;;;;4842331;29;21053;-48
2022/06/14 08:37:47;;;;;;;9.60;2.83;;;19.50;99.90;;;;;;4837284;29;20462;-48
2022/06/14 08:40:31;;;;;;;8.43;2.30;;;19.10;99.90;;;;;;4841872;29;20515;-48
2022/06/14 08:43:10;;;;;;;10.37;2.40;;;18.40;99.90;;;;;;4841218;29;20503;-48
2022/06/14 08:45:39;;;;;;;7.90;2.20;;;18.20;99.90;;;;;;4841012;29;20441;-48
2022/06/14 08:48:49;;;;;;;9.97;2.53;;;18.20;99.90;;;;;;4836018;29;20838;-49
2022/06/14 08:51:41;;;;;;;5.53;2.20;;;18.20;99.90;;;;;;4842035;29;20521;-48
2022/06/14 08:54:12;;;;;;;11.40;2.80;;;18.10;99.90;;;;;;4836641;29;20435;-48
2022/06/14 08:56:44;;;;;;;7.33;2.70;;;18.60;99.90;;;;;;4841384;29;20889;-49
2022/06/14 08:59:37;;;;;;;7.40;2.10;;;19.50;99.90;;;;;;4841853;29;20426;-49
2022/06/14 09:02:33;;;;;;;10.37;2.60;;;19.80;99.90;;;;;;4824142;29;20450;-48
2022/06/14 09:05:30;;;;;;;10.70;2.43;;;19.40;99.90;;;;;;4836271;29;20928;-48
2022/06/14 09:08:49;;;;;;;8.83;2.07;;;18.60;99.90;;;;;;4840638;29;20528;-48
2022/06/14 09:11:18;;;;;;;10.57;2.70;;;19.00;99.90;;;;;;4802135;29;20465;-49
2022/06/14 09:14:13;;;;;;;10.77;2.27;;;19.90;99.90;;;;;;4833661;29;20438;-49
2022/06/14 09:17:13;;;;;;;6.90;1.97;;;20.70;99.90;;;;;;4836213;29;20427;-49
2022/06/14 09:19:47;;;;;;;3.47;1.57;;;21.90;99.90;;;;;;4841604;29;20429;-48
2022/06/14 09:22:22;;;;;;;6.13;1.63;;;22.10;99.90;;;;;;4840306;29;20865;-49
2022/06/14 09:24:59;;;;;;;4.67;1.50;;;21.70;99.90;;;;;;4834745;29;20896;-49
2022/06/14 09:27:46;;;;;;;7.63;2.00;;;21.00;99.90;;;;;;4841219;29;20427;-48
2022/06/14 09:30:27;;;;;;;4.70;1.97;;;20.30;99.90;;;;;;4822940;29;20490;-48
2022/06/14 09:33:27;;;;;;;8.20;1.93;;;20.10;99.90;;;;;;4840266;29;20441;-48
2022/06/14 09:36:26;;;;;;;6.03;2.00;;;19.90;99.90;;;;;;4816650;29;20542;-48
2022/06/14 09:39:07;;;;;;;7.50;2.40;;;19.70;99.90;;;;;;4840863;29;20435;-48
2022/06/14 09:42:10;;;;;;;5.50;1.80;;;19.30;99.90;;;;;;4834060;29;20466;-48
2022/06/14 09:44:57;;;;;;;2.80;1.67;;;19.10;99.90;;;;;;4839982;29;20905;-48
2022/06/14 09:47:44;;;;;;;8.80;1.80;;;19.20;99.90;;;;;;4825428;29;20446;-48
2022/06/14 09:50:25;;;;;;;10.43;2.07;;;19.30;99.90;;;;;;4840019;29;20996;-48
2022/06/14 09:52:50;;;;;;;6.13;1.60;;;19.20;99.90;;;;;;4840385;29;20431;-48
2022/06/14 09:55:40;;;;;;;5.77;2.03;;;19.50;99.90;;;;;;4840432;29;20998;-49
2022/06/14 09:58:18;;;;;;;6.37;1.70;;;19.60;99.90;;;;;;4836562;29;20194;-48
2022/06/14 10:01:02;;;;;;;4.37;1.70;;;19.40;99.90;;;;;;4840230;29;20445;-48
2022/06/14 10:03:33;;;;;;;5.23;2.00;;;19.50;99.90;;;;;;4839551;29;20847;-48
2022/06/14 10:06:37;;;;;;;6.63;1.87;;;19.50;99.90;;;;;;4838398;29;20850;-48
2022/06/14 10:09:04;;;;;;;3.40;1.63;;;19.30;99.90;;;;;;4836167;29;20494;-48
2022/06/14 10:11:48;;;;;;;5.77;1.90;;;19.00;99.90;;;;;;4840529;29;20571;-48
2022/06/14 10:14:41;;;;;;;6.87;1.87;;;18.80;99.90;;;;;;4840545;29;20821;-48
2022/06/14 10:17:16;;;;;;;12.10;1.67;;;18.40;99.90;;;;;;4840072;29;20438;-48
2022/06/14 10:19:47;;;;;;;7.23;1.90;;;18.30;99.90;;;;;;4841733;29;20444;-48
2022/06/14 10:22:13;;;;;;;4.10;1.77;;;18.40;99.90;;;;;;4823747;29;20439;-48
2022/06/14 10:25:00;;;;;;;5.63;1.80;;;18.60;99.90;;;;;;4842970;29;20789;-48
2022/06/14 10:30:40;;;;;;;4.37;1.63;;;19.40;99.90;;;;;;4838528;29;20626;-48
2022/06/14 10:33:19;;;;;;;7.33;2.00;;;19.40;99.90;;;;;;4840594;29;20438;-48
2022/06/14 10:35:58;;;;;;;9.23;2.37;;;19.30;99.90;;;;;;4838973;29;20569;-48
2022/06/14 10:38:43;;;;;;;5.20;1.87;;;19.10;99.90;;;;;;4835213;29;20426;-48
2022/06/14 10:41:19;;;;;;;4.60;1.80;;;19.00;99.90;;;;;;4837303;29;20955;-48
2022/06/14 10:44:13;;;;;;;6.47;1.60;;;18.70;99.90;;;;;;4837343;29;20453;-48
2022/06/14 10:47:25;;;;;;;7.90;1.80;;;18.70;99.90;;;;;;4837495;29;20446;-48
2022/06/14 10:50:00;;;;;;;7.60;2.30;;;18.90;99.90;;;;;;4783139;29;20486;-48
2022/06/14 10:52:57;;;;;;;6.67;1.97;;;19.60;99.90;;;;;;4839458;29;20944;-48
2022/06/14 10:55:34;;;;;;;4.70;1.70;;;20.20;99.90;;;;;;4819242;29;20463;-48
2022/06/14 10:58:21;;;;;;;5.23;2.07;;;20.70;99.90;;;;;;4840468;29;20481;-48
2022/06/14 11:01:05;;;;;;;11.80;2.00;;;20.40;99.90;;;;;;4839255;29;20517;-48
2022/06/14 11:03:54;;;;;;;2.70;1.63;;;19.90;99.90;;;;;;4838447;29;20455;-48
2022/06/14 11:06:44;;;;;;;5.13;1.77;;;19.80;99.90;;;;;;4837236;29;20451;-48
2022/06/14 11:09:38;;;;;;;7.80;2.07;;;19.70;99.90;;;;;;4838560;29;20526;-48
2022/06/14 11:12:15;;;;;;;5.00;1.70;;;20.00;99.90;;;;;;4839614;29;20993;-48
2022/06/14 11:15:22;;;;;;;5.57;1.73;;;20.30;99.90;;;;;;4838787;29;20454;-48
2022/06/14 11:18:20;;;;;;;4.43;1.60;;;20.30;99.90;;;;;;4839097;29;20438;-48
2022/06/14 11:21:20;;;;;;;3.93;1.83;;;20.10;99.90;;;;;;4838924;29;20979;-48
2022/06/14 11:23:54;;;;;;;4.80;1.97;;;19.90;99.90;;;;;;4839054;29;20478;-49
2022/06/14 11:26:44;;;;;;;4.97;1.90;;;20.20;99.90;;;;;;4838512;29;20454;-48
2022/06/14 11:29:23;;;;;;;4.90;2.00;;;20.40;99.90;;;;;;4838537;29;20454;-49
2022/06/14 11:32:03;;;;;;;4.43;1.70;;;20.50;99.90;;;;;;4839783;29;20453;-48
2022/06/14 11:34:56;;;;;;;2.97;1.30;;;20.60;99.90;;;;;;4840698;29;20498;-48
2022/06/14 11:37:47;;;;;;;3.30;1.10;;;21.20;99.90;;;;;;4838243;29;20458;-48
2022/06/14 11:40:23;;;;;;;4.50;1.40;;;21.40;99.90;;;;;;4838496;29;20450;-48
2022/06/14 11:43:20;;;;;;;2.87;1.37;;;21.30;99.90;;;;;;4837825;29;20450;-48
2022/06/14 11:45:59;;;;;;;8.43;2.07;;;20.70;99.90;;;;;;4837995;29;20450;-49
2022/06/14 11:48:37;;;;;;;3.23;1.53;;;20.00;99.90;;;;;;4837286;29;21041;-48
2022/06/14 11:51:26;;;;;;;5.60;1.63;;;19.60;99.90;;;;;;4837894;29;20568;-48
2022/06/14 11:54:01;;;;;;;5.30;1.50;;;19.60;99.90;;;;;;4839736;29;20437;-48
2022/06/14 11:56:42;;;;;;;4.10;1.47;;;19.70;99.90;;;;;;4834269;29;20929;-48
2022/06/14 11:59:48;;;;;;;3.70;1.43;;;19.80;99.90;;;;;;4823183;29;20440;-49
2022/06/14 12:02:43;;;;;;;6.13;1.23;;;20.40;99.90;;;;;;4838965;29;20456;-48
2022/06/14 12:05:30;;;;;;;3.27;1.13;;;20.80;99.90;;;;;;4840885;29;21019;-48
2022/06/14 12:08:01;;;;;;;4.97;1.30;;;20.60;99.90;;;;;;4839474;29;20500;-49
2022/06/14 12:10:49;;;;;;;3.83;1.33;;;20.30;99.90;;;;;;4838417;29;20486;-48
2022/06/14 12:13:35;;;;;;;4.80;1.40;;;20.30;99.90;;;;;;4835543;29;20451;-49
2022/06/14 12:16:01;;;;;;;6.27;1.40;;;20.20;99.90;;;;;;4839892;29;21031;-48
2022/06/14 12:18:30;;;;;;;8.63;1.67;;;19.90;99.90;;;;;;4840186;29;20450;-48
2022/06/14 12:21:24;;;;;;;3.83;1.63;;;19.70;99.90;;;;;;4849105;29;20192;-49
2022/06/14 12:23:56;;;;;;;5.73;1.40;;;19.60;99.90;;;;;;4817805;29;20454;-49
2022/06/14 12:26:40;;;;;;;5.80;1.50;;;19.70;99.90;;;;;;4843400;29;20444;-49
2022/06/14 12:29:33;;;;;;;5.90;1.47;;;19.80;99.90;;;;;;4840358;29;20953;-48
2022/06/14 12:31:59;;;;;;;2.03;1.40;;;19.90;99.90;;;;;;4839255;29;20427;-49
2022/06/14 12:34:31;;;;;;;3.23;1.30;;;20.10;99.90;;;;;;4847305;29;20439;-49
2022/06/14 12:37:29;;;;;;;5.13;1.40;;;20.40;99.90;;;;;;4847071;29;20442;-49
2022/06/14 12:40:08;;;;;;;2.60;1.40;;;20.50;99.90;;;;;;4839580;29;20446;-49
2022/06/14 12:42:55;;;;;;;3.33;1.40;;;20.70;99.90;;;;;;4838362;29;20813;-48
2022/06/14 12:45:27;;;;;;;4.57;1.30;;;20.60;99.90;;;;;;4837620;29;20507;-49
2022/06/14 12:48:11;;;;;;;3.60;1.47;;;20.30;99.90;;;;;;4843393;29;20783;-49
2022/06/14 12:50:44;;;;;;;2.50;1.00;;;19.90;99.90;;;;;;4843918;29;20471;-48
2022/06/14 12:53:33;;;;;;;3.33;1.20;;;20.10;99.90;;;;;;4846884;29;20443;-48
2022/06/14 12:56:06;;;;;;;3.80;1.60;;;20.20;99.90;;;;;;4843796;29;20446;-49
2022/06/14 12:58:51;;;;;;;5.23;1.33;;;20.00;99.90;;;;;;4842009;29;20453;-48
2022/06/14 13:01:29;;;;;;;1.43;1.00;;;20.00;99.90;;;;;;4837493;29;20452;-49
2022/06/14 13:04:04;;;;;;;5.53;1.70;;;19.70;99.90;;;;;;4840093;29;20450;-48
2022/06/14 13:06:53;;;;;;;4.90;1.80;;;19.60;99.90;;;;;;4834873;29;20517;-49
2022/06/14 13:09:37;;;;;;;8.87;1.70;;;19.40;99.90;;;;;;4838424;29;20471;-48
2022/06/14 13:12:02;;;;;;;1.97;1.30;;;19.30;99.90;;;;;;4841464;29;20427;-49
2022/06/14 13:14:32;;;;;;;2.47;1.47;;;19.10;99.90;;;;;;4841591;29;20772;-49
2022/06/14 13:17:26;;;;;;;5.33;1.97;;;19.10;99.90;;;;;;4840992;29;20260;-49
2022/06/14 13:20:15;;;;;;;2.03;1.40;;;19.40;99.90;;;;;;4834454;29;20520;-49
2022/06/14 13:23:12;;;;;;;3.30;1.57;;;19.70;99.90;;;;;;4841381;29;21181;-49
2022/06/14 13:25:52;;;;;;;2.73;1.50;;;19.90;99.90;;;;;;4840867;29;20446;-49
2022/06/14 13:28:29;;;;;;;3.30;1.70;;;19.90;99.90;;;;;;4835411;29;20476;-49
2022/06/14 13:31:20;;;;;;;2.80;1.23;;;19.90;99.90;;;;;;4841145;29;20473;-49
2022/06/14 13:34:11;;;;;;;4.10;2.03;;;19.80;99.90;;;;;;4840658;29;20430;-49
2022/06/14 13:37:00;;;;;;;2.97;1.60;;;19.70;99.90;;;;;;4835155;29;20434;-48
2022/06/14 13:39:37;;;;;;;3.30;1.70;;;19.70;99.90;;;;;;4841351;29;20815;-49
2022/06/14 13:42:12;;;;;;;4.47;1.77;;;19.40;99.90;;;;;;4841356;29;20429;-49
2022/06/14 13:45:08;;;;;;;4.00;1.77;;;19.40;99.90;;;;;;4841140;29;20509;-48
2022/06/14 13:47:53;;;;;;;7.80;1.67;;;19.20;99.90;;;;;;4840480;29;21280;-49
2022/06/14 13:50:43;;;;;;;3.80;1.80;;;19.20;99.90;;;;;;4840510;29;20484;-49
2022/06/14 13:53:20;;;;;;;5.10;1.60;;;19.20;99.90;;;;;;4834049;29;20439;-49
2022/06/14 13:55:56;;;;;;;3.97;1.70;;;19.30;99.90;;;;;;4840177;29;20535;-49
2022/06/14 13:58:47;;;;;;;4.10;1.80;;;19.50;99.90;;;;;;4840944;29;20466;-49
2022/06/14 14:01:18;;;;;;;5.30;1.93;;;19.90;99.90;;;;;;4841131;29;20423;-49
2022/06/14 14:04:07;;;;;;;7.20;1.90;;;20.10;99.90;;;;;;4840386;29;20454;-49
2022/06/14 14:06:50;;;;;;;3.80;1.60;;;20.40;99.90;;;;;;4832497;29;20450;-49
2022/06/14 14:09:21;;;;;;;9.83;1.60;;;20.30;99.90;;;;;;4821892;29;20467;-49